Al-Khusaria, Saudi Arabia

1:10 AM AST on September 22, 2014 (GMT +0300)
Al Dawadmi | Change Station
CLOSE
Current Station
Airport
Location: Al Dawadmi,
Elevation: 3025 ft
Nearby Weather Stations

Elev 3025 ft 24.45 °N, 44.12 °E | Updated 5 hours ago

Clear
Clear
93 °F
Feels Like 93 °F
N
9
Wind Variable Wind from ESE

Today
High -- | Low -- °F
--% Chance of Precip.
Yesterday
High -- | Low -- °F
Precip. -- in
5:50 AM 5:58 PM
Waning Crescent, 5% visible
Pressure 29.80 in
Visibility -9999.0 miles
Clouds
Dew Point 28 °F
Humidity 10%
Rainfall 0.00 in
Snow Depth Not available.
UV Not available.
Pollen Not available.
Air Quality Not available.
Flu Activity Not available.
METAR OEDM 211700Z 12008KT CAVOK 34/M02 Q1009

More Conditions Fewer Conditions

Pressure 29.80 in
Visibility -9999.0 miles
Clouds
Dew Point 28 °F
Humidity 10%
Rainfall 0.00 in
Snow Depth Not available.
UV Not available.
Pollen Not available.
Air Quality Not available.
Flu Activity Not available.
METAR OEDM 211700Z 12008KT CAVOK 34/M02 Q1009

More Conditions Fewer Conditions

10-Day Weather Forecast

Almanac

Astronomy

Sep. 22, 2014 Rise Set
Actual Time 5:50 AM AST 5:58 PM AST
Civil Twilight 5:27 AM AST 6:20 PM AST
Nautical Twilight 5:01 AM AST 6:47 PM AST
Astronomical Twilight 4:34 AM AST 7:13 PM AST
Moon 4:07 AM AST (9/22) 4:47 PM AST (9/22)
Length of Visible Light 12h 53m
Length of Day
12h 08m
Tomorrow will be 1m 22s shorter.
Waning Crescent, 5% of the Moon is Illuminated
Sep 21
Waning Crescent
Sep 24
New
Oct 1
First Quarter
Oct 8
Full
Oct 15
Last Quarter

Yesterday's Extremes

Country Highs Country Lows

Community

WunderPhotos

Upload Photos

1,755,269 photos uploaded!

WunderBlogs® & News

Nearby

Snow Depth

Not available.

Earthquake Activity

City Distance Mag. Time & Date
No recent earthquake activity has been reported nearby.
Minimum magnitude displayed is 2.5.

Coastal Water Temperatures

Place Temperature
No Stations Reporting

Nearby Weather Stations